createdAt,value
2018-06-10T00:00:31.400Z,24.37
2018-06-10T00:01:11.874Z,24.4
2018-06-10T00:01:52.425Z,24.37
2018-06-10T00:02:32.841Z,24.4
2018-06-10T00:03:13.315Z,24.4
2018-06-10T00:03:53.857Z,24.37
2018-06-10T00:04:34.331Z,24.3
2018-06-10T00:05:14.900Z,24.27
2018-06-10T00:05:55.336Z,24.21
2018-06-10T00:06:35.831Z,24.1
2018-06-10T00:07:16.327Z,24.12
2018-06-10T00:07:57.017Z,24.2
2018-06-10T00:08:37.511Z,24.16
2018-06-10T00:09:17.994Z,24.09
2018-06-10T00:09:58.460Z,24.1
2018-06-10T00:10:38.967Z,24.13
2018-06-10T00:11:19.442Z,24.16
2018-06-10T00:11:59.983Z,24.13
2018-06-10T00:12:40.451Z,24.1
2018-06-10T00:13:20.909Z,24.13
2018-06-10T00:14:01.666Z,24.06
2018-06-10T00:14:42.154Z,24.09
2018-06-10T00:15:22.660Z,24.15
2018-06-10T00:16:03.173Z,24.12
2018-06-10T00:16:43.650Z,24.12
2018-06-10T00:17:24.168Z,24.08
2018-06-10T00:18:04.685Z,24.03
2018-06-10T00:18:45.154Z,24.02
2018-06-10T00:19:25.683Z,24.05
2018-06-10T00:20:06.155Z,24.06
2018-06-10T00:20:46.693Z,24.1
2018-06-10T00:21:27.185Z,24.09
2018-06-10T00:22:07.693Z,23.97
2018-06-10T00:22:48.208Z,23.88
2018-06-10T00:23:28.650Z,23.85
2018-06-10T00:24:09.145Z,23.91
2018-06-10T00:24:49.938Z,23.98
2018-06-10T00:25:30.434Z,23.98
2018-06-10T00:26:10.940Z,23.94
2018-06-10T00:26:51.466Z,24.06
2018-06-10T00:27:31.989Z,23.98
2018-06-10T00:28:12.444Z,24.02
2018-06-10T00:28:52.901Z,24.03
2018-06-10T00:29:33.436Z,24.06
2018-06-10T00:30:13.948Z,24.13
2018-06-10T00:30:54.398Z,24.12
2018-06-10T00:31:34.903Z,24.15
2018-06-10T00:32:15.386Z,24.12
2018-06-10T00:32:55.897Z,24.06
2018-06-10T00:33:36.427Z,24.1
2018-06-10T00:34:16.878Z,24.06
2018-06-10T00:34:57.401Z,24.06
2018-06-10T00:35:37.895Z,23.98
2018-06-10T00:36:18.465Z,23.98
2018-06-10T00:36:59.011Z,23.84
2018-06-10T00:37:39.491Z,23.91
2018-06-10T00:38:19.951Z,23.78
2018-06-10T00:39:00.543Z,23.88
2018-06-10T00:39:41.093Z,23.84
2018-06-10T00:40:21.555Z,23.9
2018-06-10T00:41:02.064Z,23.78
2018-06-10T00:41:42.551Z,23.76
2018-06-10T00:42:23.081Z,23.8
2018-06-10T00:43:03.537Z,23.79
2018-06-10T00:43:44.089Z,23.88
2018-06-10T00:44:24.558Z,23.91
2018-06-10T00:45:05.073Z,23.85
2018-06-10T00:45:45.573Z,23.91
2018-06-10T00:46:26.068Z,23.84
2018-06-10T00:47:06.598Z,23.8
2018-06-10T00:47:47.119Z,23.72
2018-06-10T00:48:27.562Z,23.8
2018-06-10T00:49:08.115Z,23.87
2018-06-10T00:49:48.585Z,23.75
2018-06-10T00:50:29.143Z,23.78
2018-06-10T00:51:09.645Z,23.75
2018-06-10T00:51:50.092Z,23.91
2018-06-10T00:52:30.618Z,23.79
2018-06-10T00:53:11.102Z,23.8
2018-06-10T00:53:51.611Z,23.79
2018-06-10T00:54:32.074Z,23.83
2018-06-10T00:55:12.590Z,23.8
2018-06-10T00:55:53.176Z,23.85
2018-06-10T00:56:33.614Z,23.95
2018-06-10T00:57:14.110Z,23.87
2018-06-10T00:57:54.615Z,23.88
2018-06-10T00:58:35.128Z,23.88
2018-06-10T00:59:15.613Z,23.85
2018-06-10T00:59:56.095Z,23.91
2018-06-10T01:00:36.568Z,23.9
2018-06-10T01:01:17.045Z,23.87
2018-06-10T01:01:57.535Z,23.93
2018-06-10T01:02:38.025Z,23.84
2018-06-10T01:03:18.524Z,23.94
2018-06-10T01:03:59.009Z,23.95
2018-06-10T01:04:39.512Z,24.05
2018-06-10T01:05:20.465Z,24.05
2018-06-10T01:06:00.954Z,24.06
2018-06-10T01:06:41.458Z,24
2018-06-10T01:07:22.005Z,23.98
2018-06-10T01:08:02.433Z,23.93
2018-06-10T01:08:42.916Z,23.95
2018-06-10T01:09:23.405Z,23.93
2018-06-10T01:10:03.976Z,23.97
2018-06-10T01:10:44.390Z,23.95
2018-06-10T01:11:24.926Z,24
2018-06-10T01:12:05.467Z,23.91
2018-06-10T01:12:45.951Z,23.87
2018-06-10T01:13:26.446Z,23.95
2018-06-10T01:14:06.903Z,23.98
2018-06-10T01:14:47.389Z,24
2018-06-10T01:15:27.862Z,23.94
2018-06-10T01:16:08.352Z,24.06
2018-06-10T01:16:48.857Z,23.97
2018-06-10T01:17:29.289Z,23.91
2018-06-10T01:18:09.800Z,23.98
2018-06-10T01:18:50.312Z,24.05
2018-06-10T01:19:30.774Z,24.08
2018-06-10T01:20:11.289Z,23.97
2018-06-10T01:20:51.816Z,23.98
2018-06-10T01:21:32.280Z,23.93
2018-06-10T01:22:12.802Z,24
2018-06-10T01:22:53.284Z,23.9
2018-06-10T01:23:33.785Z,23.91
2018-06-10T01:24:14.242Z,23.9
2018-06-10T01:24:54.793Z,23.93
2018-06-10T01:25:35.226Z,23.76
2018-06-10T01:26:15.753Z,23.88
2018-06-10T01:26:56.287Z,23.84
2018-06-10T01:27:36.760Z,23.97
2018-06-10T01:28:17.264Z,23.91
2018-06-10T01:28:57.785Z,23.84
2018-06-10T01:29:38.285Z,23.9
2018-06-10T01:30:18.749Z,23.85
2018-06-10T01:30:59.260Z,23.85
2018-06-10T01:31:39.766Z,23.9
2018-06-10T01:32:20.291Z,23.83
2018-06-10T01:33:00.751Z,23.8
2018-06-10T01:33:41.266Z,23.83
2018-06-10T01:34:21.820Z,23.9
2018-06-10T01:35:02.291Z,23.87
2018-06-10T01:35:42.799Z,23.88
2018-06-10T01:36:23.256Z,24.02
2018-06-10T01:37:03.805Z,24.02
2018-06-10T01:37:44.281Z,23.95
2018-06-10T01:38:24.782Z,23.98
2018-06-10T01:39:05.274Z,23.98
2018-06-10T01:39:45.792Z,24.02
2018-06-10T01:40:26.266Z,23.95
2018-06-10T01:41:06.801Z,23.95
2018-06-10T01:41:47.386Z,24
2018-06-10T01:42:27.876Z,23.95
2018-06-10T01:43:08.447Z,24.03
2018-06-10T01:43:48.901Z,23.88
2018-06-10T01:44:29.423Z,23.91
2018-06-10T01:45:09.913Z,23.87
2018-06-10T01:45:50.427Z,23.88
2018-06-10T01:46:30.883Z,23.87
2018-06-10T01:47:11.384Z,23.9
2018-06-10T01:47:51.843Z,23.84
2018-06-10T01:48:32.358Z,23.84
2018-06-10T01:49:12.830Z,23.72
2018-06-10T01:49:53.401Z,23.83
2018-06-10T01:50:33.850Z,23.83
2018-06-10T01:51:14.355Z,23.83
2018-06-10T01:51:54.817Z,23.78
2018-06-10T01:52:35.319Z,23.72
2018-06-10T01:53:15.817Z,23.8
2018-06-10T01:53:56.342Z,23.66
2018-06-10T01:54:36.855Z,23.76
2018-06-10T01:55:17.484Z,23.7
2018-06-10T01:55:58.831Z,23.75
2018-06-10T01:56:39.324Z,23.76
2018-06-10T01:57:19.768Z,23.75
2018-06-10T01:58:00.353Z,23.73
2018-06-10T01:58:40.755Z,23.72
2018-06-10T01:59:21.256Z,23.72
2018-06-10T02:00:01.766Z,23.54
2018-06-10T02:00:42.273Z,23.58
2018-06-10T02:01:23.366Z,23.57
2018-06-10T02:02:03.936Z,23.53
2018-06-10T02:02:44.411Z,23.6
2018-06-10T02:03:24.879Z,23.57
2018-06-10T02:04:05.415Z,23.54
2018-06-10T02:04:45.879Z,23.58
2018-06-10T02:05:26.373Z,23.61
2018-06-10T02:06:06.866Z,23.6
2018-06-10T02:06:47.430Z,23.6
2018-06-10T02:07:27.895Z,23.61
2018-06-10T02:08:08.509Z,23.63
2018-06-10T02:08:48.995Z,23.6
2018-06-10T02:09:29.603Z,23.57
2018-06-10T02:10:09.976Z,23.6
2018-06-10T02:10:50.470Z,23.63
2018-06-10T02:11:30.985Z,23.55
2018-06-10T02:12:11.448Z,23.63
2018-06-10T02:12:51.989Z,23.51
2018-06-10T02:13:32.433Z,23.51
2018-06-10T02:14:12.961Z,23.51
2018-06-10T02:14:53.504Z,23.43
2018-06-10T02:15:33.990Z,23.47
2018-06-10T02:16:14.526Z,23.42
2018-06-10T02:16:55.079Z,23.55
2018-06-10T02:17:35.536Z,23.46
2018-06-10T02:18:16.075Z,23.53
2018-06-10T02:18:56.552Z,23.6
2018-06-10T02:19:37.100Z,23.65
2018-06-10T02:20:17.552Z,23.57
2018-06-10T02:20:58.051Z,23.63
2018-06-10T02:21:38.565Z,23.57
2018-06-10T02:22:19.065Z,23.6
2018-06-10T02:22:59.617Z,23.57
2018-06-10T02:23:40.080Z,23.47
2018-06-10T02:24:20.565Z,23.51
2018-06-10T02:25:01.062Z,23.47
2018-06-10T02:25:41.532Z,23.58
2018-06-10T02:26:22.064Z,23.48
2018-06-10T02:27:02.524Z,23.54
2018-06-10T02:27:43.274Z,23.53
2018-06-10T02:28:23.761Z,23.55
2018-06-10T02:29:04.261Z,23.63
2018-06-10T02:29:44.826Z,23.55
2018-06-10T02:30:25.318Z,23.61
2018-06-10T02:31:05.848Z,23.63
2018-06-10T02:31:46.352Z,23.72
2018-06-10T02:32:26.859Z,23.63
2018-06-10T02:33:07.357Z,23.7
2018-06-10T02:33:47.947Z,23.54
2018-06-10T02:34:28.508Z,23.43
2018-06-10T02:35:09.025Z,23.58
2018-06-10T02:35:49.498Z,23.6
2018-06-10T02:36:30.001Z,23.55
2018-06-10T02:37:10.483Z,23.43
2018-06-10T02:37:50.977Z,23.43
2018-06-10T02:38:31.465Z,23.51
2018-06-10T02:39:11.956Z,23.48
2018-06-10T02:39:52.440Z,23.66
2018-06-10T02:40:32.927Z,23.57
2018-06-10T02:41:13.399Z,23.54
2018-06-10T02:41:54.108Z,23.68
2018-06-10T02:42:34.650Z,23.55
2018-06-10T02:43:15.182Z,23.65
2018-06-10T02:43:55.637Z,23.55
2018-06-10T02:44:36.104Z,23.57
2018-06-10T02:45:16.595Z,23.43
2018-06-10T02:45:57.112Z,23.57
2018-06-10T02:46:37.582Z,23.54
2018-06-10T02:47:18.082Z,23.5
2018-06-10T02:47:58.615Z,23.57
2018-06-10T02:48:39.159Z,23.57
2018-06-10T02:49:19.655Z,23.55
2018-06-10T02:50:00.136Z,23.57
2018-06-10T02:50:40.643Z,23.48
2018-06-10T02:51:21.144Z,23.47
2018-06-10T02:52:01.557Z,23.4
2018-06-10T02:52:42.127Z,23.55
2018-06-10T02:53:22.553Z,23.47
2018-06-10T02:54:03.035Z,23.53
2018-06-10T02:54:43.551Z,23.43
2018-06-10T02:55:23.999Z,23.43
2018-06-10T02:56:04.538Z,23.55
2018-06-10T02:56:45.029Z,23.57
2018-06-10T02:57:25.476Z,23.47
2018-06-10T02:58:05.999Z,23.48
2018-06-10T02:58:46.436Z,23.51
2018-06-10T02:59:26.974Z,23.6
2018-06-10T03:00:07.476Z,23.58
2018-06-10T03:00:47.947Z,23.58
2018-06-10T03:01:28.469Z,23.54
2018-06-10T03:02:08.964Z,23.6
2018-06-10T03:02:49.718Z,23.58
2018-06-10T03:03:30.216Z,23.43
2018-06-10T03:04:10.713Z,23.46
2018-06-10T03:04:51.139Z,23.5
2018-06-10T03:05:31.794Z,23.54
2018-06-10T03:06:12.291Z,23.51
2018-06-10T03:06:52.813Z,23.58
2018-06-10T03:07:33.349Z,23.63
2018-06-10T03:08:13.821Z,23.55
2018-06-10T03:08:54.538Z,23.48
2018-06-10T03:09:35.002Z,23.4
2018-06-10T03:10:15.497Z,23.43
2018-06-10T03:10:55.975Z,23.32
2018-06-10T03:11:36.501Z,23.33
2018-06-10T03:12:16.961Z,23.42
2018-06-10T03:12:57.507Z,23.35
2018-06-10T03:13:38.029Z,23.4
2018-06-10T03:14:18.493Z,23.43
2018-06-10T03:14:59.029Z,23.4
2018-06-10T03:15:39.521Z,23.38
2018-06-10T03:16:20.115Z,23.42
2018-06-10T03:17:00.591Z,23.32
2018-06-10T03:17:41.040Z,23.4
2018-06-10T03:18:21.541Z,23.35
2018-06-10T03:19:02.033Z,23.47
2018-06-10T03:19:42.505Z,23.43
2018-06-10T03:20:23.030Z,23.48
2018-06-10T03:21:03.573Z,23.4
2018-06-10T03:21:44.056Z,23.55
2018-06-10T03:22:24.520Z,23.57
2018-06-10T03:23:04.979Z,23.58
2018-06-10T03:23:45.472Z,23.61
2018-06-10T03:24:26.013Z,23.57
2018-06-10T03:25:06.488Z,23.46
2018-06-10T03:25:46.984Z,23.47
2018-06-10T03:26:27.475Z,23.47
2018-06-10T03:27:07.955Z,23.55
2018-06-10T03:27:48.438Z,23.6
2018-06-10T03:28:28.964Z,23.51
2018-06-10T03:29:09.420Z,23.51
2018-06-10T03:29:50.149Z,23.53
2018-06-10T03:30:30.701Z,23.43
2018-06-10T03:31:11.248Z,23.55
2018-06-10T03:31:51.676Z,23.42
2018-06-10T03:32:32.208Z,23.57
2018-06-10T03:33:12.693Z,23.55
2018-06-10T03:33:53.208Z,23.53
2018-06-10T03:34:33.697Z,23.6
2018-06-10T03:35:14.178Z,23.5
2018-06-10T03:35:54.679Z,23.43
2018-06-10T03:36:35.173Z,23.55
2018-06-10T03:37:15.717Z,23.63
2018-06-10T03:37:56.237Z,23.46
2018-06-10T03:38:36.722Z,23.43
2018-06-10T03:39:17.235Z,23.4
2018-06-10T03:39:57.699Z,23.42
2018-06-10T03:40:38.235Z,23.57
2018-06-10T03:41:18.683Z,23.42
2018-06-10T03:41:59.407Z,23.43
2018-06-10T03:42:40.298Z,23.43
2018-06-10T03:43:20.680Z,23.39
2018-06-10T03:44:01.193Z,23.5
2018-06-10T03:44:41.714Z,23.54
2018-06-10T03:45:22.177Z,23.61
2018-06-10T03:46:02.650Z,23.47
2018-06-10T03:46:43.140Z,23.57
2018-06-10T03:47:23.617Z,23.65
2018-06-10T03:48:04.230Z,23.72
2018-06-10T03:48:44.719Z,23.72
2018-06-10T03:49:25.257Z,23.42
2018-06-10T03:50:05.700Z,23.43
2018-06-10T03:50:46.168Z,23.65
2018-06-10T03:51:26.697Z,23.65
2018-06-10T03:52:07.211Z,23.66
2018-06-10T03:52:47.675Z,23.72
2018-06-10T03:53:28.190Z,23.68
2018-06-10T03:54:08.673Z,23.69
2018-06-10T03:54:49.150Z,23.78
2018-06-10T03:55:29.896Z,23.7
2018-06-10T03:56:10.354Z,23.72
2018-06-10T03:56:50.820Z,23.69
2018-06-10T03:57:31.322Z,23.72
2018-06-10T03:58:11.825Z,23.72
2018-06-10T03:58:52.275Z,23.66
2018-06-10T03:59:32.782Z,23.75
2018-06-10T04:00:13.306Z,23.7
2018-06-10T04:00:53.803Z,23.58
2018-06-10T04:01:34.287Z,23.7
2018-06-10T04:02:14.783Z,23.73
2018-06-10T04:02:55.288Z,23.7
2018-06-10T04:03:35.763Z,23.76
2018-06-10T04:04:16.309Z,23.75
2018-06-10T04:04:56.747Z,23.91
2018-06-10T04:05:37.429Z,23.85
2018-06-10T04:06:17.859Z,23.84
2018-06-10T04:06:58.408Z,23.91
2018-06-10T04:07:38.911Z,23.98
2018-06-10T04:08:19.376Z,24.09
2018-06-10T04:08:59.867Z,24.05
2018-06-10T04:09:40.415Z,24.05
2018-06-10T04:10:20.839Z,23.95
2018-06-10T04:11:01.350Z,23.95
2018-06-10T04:11:41.840Z,24.03
2018-06-10T04:12:22.381Z,24.06
2018-06-10T04:13:02.908Z,24.05
2018-06-10T04:13:43.376Z,24.13
2018-06-10T04:14:23.845Z,24.12
2018-06-10T04:15:04.409Z,24.13
2018-06-10T04:15:44.971Z,24.13
2018-06-10T04:16:25.387Z,24.25
2018-06-10T04:17:05.938Z,24.16
2018-06-10T04:17:46.418Z,24.2
2018-06-10T04:18:26.982Z,24.27
2018-06-10T04:19:07.446Z,24.21
2018-06-10T04:19:47.928Z,24.24
2018-06-10T04:20:28.435Z,24.16
2018-06-10T04:21:08.929Z,24.3
2018-06-10T04:21:49.436Z,24.3
2018-06-10T04:22:29.932Z,24.39
2018-06-10T04:23:10.479Z,24.28
2018-06-10T04:23:50.958Z,24.34
2018-06-10T04:24:31.490Z,24.34
2018-06-10T04:25:11.938Z,24.35
2018-06-10T04:25:52.482Z,24.4
2018-06-10T04:26:33.031Z,24.37
2018-06-10T04:27:13.508Z,24.4
2018-06-10T04:27:54.029Z,24.35
2018-06-10T04:28:34.469Z,24.32
2018-06-10T04:30:47.313Z,24.6
2018-06-10T04:31:27.852Z,24.5
2018-06-10T04:32:08.301Z,24.6
2018-06-10T04:32:48.814Z,24.46
2018-06-10T04:33:29.303Z,24.52
2018-06-10T04:34:09.797Z,24.47
2018-06-10T04:34:50.282Z,24.46
2018-06-10T04:35:30.792Z,24.49
2018-06-10T04:36:11.287Z,24.65
2018-06-10T04:36:51.823Z,24.65
2018-06-10T04:37:32.670Z,24.64
2018-06-10T04:38:13.150Z,24.64
2018-06-10T04:38:53.695Z,24.81
2018-06-10T04:39:34.172Z,25.05
2018-06-10T04:40:14.673Z,25.27
2018-06-10T04:40:55.192Z,25.39
2018-06-10T04:41:35.643Z,25.57
2018-06-10T04:42:16.185Z,25.55
2018-06-10T04:42:56.659Z,25.3
2018-06-10T04:43:37.166Z,25.15
2018-06-10T04:44:17.672Z,25.1
2018-06-10T04:44:58.140Z,25.1
2018-06-10T04:45:38.692Z,25.2
2018-06-10T04:46:19.153Z,25.08
2018-06-10T04:46:59.682Z,25.1
2018-06-10T04:47:40.168Z,25.13
2018-06-10T04:48:20.615Z,25.1
2018-06-10T04:49:01.130Z,25.21
2018-06-10T04:49:41.612Z,25.1
2018-06-10T04:50:22.090Z,25.1
2018-06-10T04:51:02.614Z,25.08
2018-06-10T04:51:43.105Z,25.13
2018-06-10T04:52:23.596Z,25.27
2018-06-10T04:53:04.203Z,25.39
2018-06-10T04:53:44.624Z,25.47
2018-06-10T04:54:25.160Z,25.77
2018-06-10T04:55:05.674Z,25.76
2018-06-10T04:55:46.178Z,25.62
2018-06-10T04:56:26.687Z,25.58
2018-06-10T04:57:07.218Z,25.55
2018-06-10T04:57:47.688Z,25.45
2018-06-10T04:58:28.192Z,25.43
2018-06-10T04:59:08.650Z,25.38
2018-06-10T04:59:49.112Z,25.43
2018-06-10T05:00:29.663Z,25.43
2018-06-10T05:01:10.136Z,25.4
2018-06-10T05:01:50.627Z,25.4
2018-06-10T05:02:31.218Z,25.25
2018-06-10T05:03:11.718Z,25.23
2018-06-10T05:03:52.180Z,25.33
2018-06-10T05:04:32.740Z,25.33
2018-06-10T05:05:13.139Z,25.4
2018-06-10T05:05:53.657Z,25.39
2018-06-10T05:06:34.174Z,25.32
2018-06-10T05:07:14.692Z,25.3
2018-06-10T05:07:55.251Z,25.18
2018-06-10T05:08:35.929Z,25.27
2018-06-10T05:09:16.698Z,25.4
2018-06-10T05:09:56.979Z,25.45
2018-06-10T05:10:37.735Z,25.5
2018-06-10T05:11:18.235Z,25.61
2018-06-10T05:11:58.731Z,25.54
2018-06-10T05:12:39.197Z,25.52
2018-06-10T05:13:19.650Z,25.62
2018-06-10T05:14:00.169Z,25.76
2018-06-10T05:14:40.745Z,25.75
2018-06-10T05:15:21.381Z,25.9
2018-06-10T05:16:01.827Z,25.83
2018-06-10T05:16:42.344Z,25.72
2018-06-10T05:17:22.883Z,25.65
2018-06-10T05:18:03.513Z,25.6
2018-06-10T05:18:43.914Z,25.79
2018-06-10T05:19:24.409Z,25.77
2018-06-10T05:20:05.250Z,25.75
2018-06-10T05:20:45.623Z,25.77
2018-06-10T05:21:26.138Z,25.87
2018-06-10T05:22:06.606Z,25.77
2018-06-10T05:22:47.109Z,25.76
2018-06-10T05:23:27.582Z,25.77
2018-06-10T05:24:08.061Z,25.91
2018-06-10T05:24:48.546Z,25.91
2018-06-10T05:25:29.126Z,25.77
2018-06-10T05:26:09.683Z,25.77
2018-06-10T05:26:50.540Z,25.91
2018-06-10T05:27:30.935Z,25.79
2018-06-10T05:28:11.395Z,25.75
2018-06-10T05:28:51.976Z,25.62
2018-06-10T05:29:32.448Z,25.77
2018-06-10T05:30:13.210Z,25.87
2018-06-10T05:30:53.705Z,25.79
2018-06-10T05:31:34.202Z,25.91
2018-06-10T05:32:14.692Z,25.87
2018-06-10T05:32:55.200Z,25.82
2018-06-10T05:33:35.698Z,25.8
2018-06-10T05:34:16.326Z,25.77
2018-06-10T05:34:56.904Z,25.9
2018-06-10T05:35:37.368Z,25.73
2018-06-10T05:36:17.875Z,25.88
2018-06-10T05:36:58.676Z,25.76
2018-06-10T05:37:39.173Z,25.73
2018-06-10T05:38:19.627Z,25.77
2018-06-10T05:39:00.135Z,25.83
2018-06-10T05:39:40.605Z,25.77
2018-06-10T05:40:21.133Z,25.91
2018-06-10T05:41:01.637Z,25.79
2018-06-10T05:41:42.162Z,25.94
2018-06-10T05:42:22.634Z,25.73
2018-06-10T05:43:03.090Z,25.72
2018-06-10T05:43:43.622Z,25.72
2018-06-10T05:44:24.104Z,25.7
2018-06-10T05:45:04.590Z,25.73
2018-06-10T05:45:45.101Z,25.67
2018-06-10T05:46:26.529Z,25.72
2018-06-10T05:47:06.302Z,25.77
2018-06-10T05:47:46.737Z,25.73
2018-06-10T05:48:27.244Z,25.69
2018-06-10T05:49:07.767Z,25.76
2018-06-10T05:49:48.212Z,25.88
2018-06-10T05:50:28.886Z,25.91
2018-06-10T05:51:09.440Z,25.92
2018-06-10T05:51:49.955Z,25.91
2018-06-10T05:52:30.411Z,25.9
2018-06-10T05:53:10.973Z,26.2
2018-06-10T05:53:51.451Z,26.82
2018-06-10T05:54:31.903Z,27.27
2018-06-10T05:55:12.499Z,28.25
2018-06-10T05:55:53.015Z,28.41
2018-06-10T05:56:33.524Z,28.51
2018-06-10T05:57:14.161Z,28.66
2018-06-10T05:57:54.626Z,28.67
2018-06-10T05:58:35.147Z,28.8
2018-06-10T05:59:15.706Z,28.81
2018-06-10T05:59:56.187Z,28.58
2018-06-10T06:00:36.696Z,28.66
2018-06-10T06:01:17.194Z,28.77
2018-06-10T06:01:57.823Z,28.7
2018-06-10T06:02:38.355Z,28.77
2018-06-10T06:03:18.857Z,28.76
2018-06-10T06:03:59.353Z,28.86
2018-06-10T06:04:39.892Z,28.9
2018-06-10T06:05:20.348Z,28.86
2018-06-10T06:06:00.843Z,28.89
2018-06-10T06:06:41.352Z,28.81
2018-06-10T06:07:21.799Z,28.78
2018-06-10T06:08:02.302Z,28.9
2018-06-10T06:08:42.796Z,28.9
2018-06-10T06:09:23.327Z,28.98
2018-06-10T06:10:03.792Z,28.9
2018-06-10T06:10:44.326Z,28.89
2018-06-10T06:11:24.790Z,29.05
2018-06-10T06:12:05.226Z,28.96
2018-06-10T06:12:45.738Z,29.09
2018-06-10T06:13:26.426Z,29.09
2018-06-10T06:14:06.812Z,28.93
2018-06-10T06:14:47.344Z,28.96
2018-06-10T06:15:27.852Z,29.08
2018-06-10T06:16:08.348Z,28.98
2018-06-10T06:16:48.804Z,29.02
2018-06-10T06:17:29.300Z,29.06
2018-06-10T06:18:09.773Z,29.06
2018-06-10T06:18:53.458Z,29.14
2018-06-10T06:19:35.167Z,29.12
2018-06-10T06:20:15.659Z,29.26
2018-06-10T06:20:56.140Z,29.31
2018-06-10T06:21:36.854Z,29.06
2018-06-10T06:22:17.106Z,29.15
2018-06-10T06:22:57.735Z,29.11
2018-06-10T06:23:38.244Z,29.06
2018-06-10T06:24:18.738Z,29.16
2018-06-10T06:24:59.273Z,29.12
2018-06-10T06:25:39.772Z,29.11
2018-06-10T06:26:20.286Z,29.09
2018-06-10T06:27:00.833Z,29.08
2018-06-10T06:27:41.326Z,29.04
2018-06-10T06:28:21.854Z,29.06
2018-06-10T06:29:02.312Z,29.02
2018-06-10T06:29:42.796Z,29.04
2018-06-10T06:30:23.389Z,29.19
2018-06-10T06:31:03.848Z,29.11
2018-06-10T06:31:44.336Z,29.18
2018-06-10T06:32:24.834Z,29.23
2018-06-10T06:33:05.504Z,29.14
2018-06-10T06:33:45.921Z,29.12
2018-06-10T06:34:26.434Z,29.19
2018-06-10T06:35:06.985Z,29.11
2018-06-10T06:35:47.517Z,29.14
2018-06-10T06:36:27.927Z,29.24
2018-06-10T06:37:08.388Z,29.26
2018-06-10T06:37:48.935Z,28.96
2018-06-10T06:38:29.384Z,29.15
2018-06-10T06:39:09.890Z,29.12
2018-06-10T06:39:50.349Z,29.16
2018-06-10T06:40:31.008Z,29.12
2018-06-10T06:41:11.414Z,29.26
2018-06-10T06:41:51.960Z,29.18
2018-06-10T06:42:32.417Z,29.21
2018-06-10T06:43:12.937Z,29.27
2018-06-10T06:43:53.676Z,29.28
2018-06-10T06:44:34.219Z,29.51
2018-06-10T06:45:14.678Z,29.42
2018-06-10T06:45:55.229Z,29.52
2018-06-10T06:46:35.728Z,29.46
2018-06-10T06:47:16.227Z,29.57
2018-06-10T06:47:56.698Z,29.6
2018-06-10T06:48:37.278Z,29.43
2018-06-10T06:49:17.744Z,29.51
2018-06-10T06:49:58.187Z,29.37
2018-06-10T06:50:38.722Z,29.41
2018-06-10T06:51:19.228Z,29.43
2018-06-10T06:51:59.734Z,29.37
2018-06-10T06:52:40.352Z,29.36
2018-06-10T06:53:20.830Z,29.51
2018-06-10T06:54:01.285Z,29.39
2018-06-10T06:54:41.797Z,29.41
2018-06-10T06:55:22.471Z,29.46
2018-06-10T06:56:02.983Z,29.51
2018-06-10T06:56:43.512Z,29.46
2018-06-10T06:57:23.973Z,29.6
2018-06-10T06:58:04.459Z,29.51
2018-06-10T06:58:45.002Z,29.55
2018-06-10T06:59:25.526Z,29.58
2018-06-10T07:00:06.016Z,29.68
2018-06-10T07:00:46.499Z,29.68
2018-06-10T07:01:27.020Z,29.67
2018-06-10T07:02:07.532Z,29.64
2018-06-10T07:02:48.031Z,29.67
2018-06-10T07:03:28.532Z,29.65
2018-06-10T07:04:09.061Z,29.74
2018-06-10T07:04:49.545Z,29.55
2018-06-10T07:05:30.012Z,29.42
2018-06-10T07:06:10.538Z,29.41
2018-06-10T07:06:51.086Z,29.27
2018-06-10T07:07:31.861Z,29.27
2018-06-10T07:08:12.297Z,29.46
2018-06-10T07:08:52.789Z,29.42
2018-06-10T07:09:33.266Z,29.39
2018-06-10T07:10:13.774Z,29.42
2018-06-10T07:10:54.260Z,29.55
2018-06-10T07:11:34.784Z,29.28
2018-06-10T07:12:15.338Z,29.34
2018-06-10T07:12:56.230Z,29.06
2018-06-10T07:13:36.773Z,29.08
2018-06-10T07:14:17.222Z,29.14
2018-06-10T07:14:57.900Z,29.16
2018-06-10T07:15:38.698Z,29.18
2018-06-10T07:16:19.195Z,29.37
2018-06-10T07:16:59.697Z,29.19
2018-06-10T07:17:40.155Z,29.31
2018-06-10T07:18:20.700Z,29.31
2018-06-10T07:19:01.242Z,29.37
2018-06-10T07:19:41.727Z,29.55
2018-06-10T07:20:22.252Z,29.73
2018-06-10T07:21:02.700Z,29.73
2018-06-10T07:21:43.201Z,29.61
2018-06-10T07:22:23.700Z,29.58
2018-06-10T07:23:04.257Z,29.53
2018-06-10T07:23:44.808Z,29.52
2018-06-10T07:24:25.244Z,29.45
2018-06-10T07:25:05.746Z,29.58
2018-06-10T07:25:46.252Z,29.37
2018-06-10T07:26:26.715Z,29.46
2018-06-10T07:27:07.202Z,29.55
2018-06-10T07:27:48.702Z,29.43
2018-06-10T07:28:29.727Z,29.58
2018-06-10T07:29:10.227Z,29.53
2018-06-10T07:29:50.769Z,29.73
2018-06-10T07:30:31.251Z,29.55
2018-06-10T07:31:11.700Z,29.39
2018-06-10T07:31:52.239Z,29.42
2018-06-10T07:32:33.126Z,29.37
2018-06-10T07:33:13.879Z,29.26
2018-06-10T07:33:54.555Z,29.37
2018-06-10T07:34:35.950Z,29.42
2018-06-10T07:35:16.515Z,29.42
2018-06-10T07:35:57.263Z,29.36
2018-06-10T07:36:37.731Z,29.51
2018-06-10T07:37:18.225Z,29.61
2018-06-10T07:37:58.790Z,29.58
2018-06-10T07:38:39.271Z,29.57
2018-06-10T07:39:19.745Z,29.61
2018-06-10T07:40:00.421Z,29.58
2018-06-10T07:40:42.128Z,29.57
2018-06-10T07:41:22.778Z,29.37
2018-06-10T07:42:03.284Z,29.34
2018-06-10T07:42:43.827Z,29.23
2018-06-10T07:43:24.344Z,29.46
2018-06-10T07:44:04.788Z,29.43
2018-06-10T07:44:45.301Z,29.52
2018-06-10T07:45:25.818Z,29.45
2018-06-10T07:46:06.407Z,29.41
2018-06-10T07:46:47.463Z,29.39
2018-06-10T07:47:28.352Z,29.43
2018-06-10T07:48:08.907Z,29.33
2018-06-10T07:48:49.670Z,29.26
2018-06-10T07:49:30.199Z,29.39
2018-06-10T07:51:31.392Z,29.55
2018-06-10T07:52:13.490Z,29.7
2018-06-10T07:52:54.323Z,29.63
2018-06-10T07:53:35.255Z,29.68
2018-06-10T07:54:15.829Z,29.58
2018-06-10T07:54:56.404Z,29.64
2018-06-10T07:55:37.008Z,29.52
2018-06-10T07:56:20.197Z,29.39
2018-06-10T07:58:17.847Z,29.57
2018-06-10T07:58:59.163Z,29.6
2018-06-10T07:59:39.976Z,29.64
2018-06-10T08:00:20.477Z,29.63
2018-06-10T08:01:00.978Z,29.68
2018-06-10T08:01:47.002Z,29.63
2018-06-10T08:02:27.759Z,29.79
2018-06-10T08:03:08.710Z,29.74
2018-06-10T08:03:49.302Z,29.68
2018-06-10T08:04:30.423Z,29.43
2018-06-10T08:05:10.877Z,29.36
2018-06-10T08:05:52.104Z,29.27
2018-06-10T08:06:34.633Z,29.08
2018-06-10T08:07:17.214Z,29.05
2018-06-10T08:07:57.211Z,29.06
2018-06-10T08:08:37.996Z,29.05
2018-06-10T08:09:20.467Z,29.04
2018-06-10T08:10:04.912Z,29.06
2018-06-10T08:10:45.487Z,29
2018-06-10T08:11:26.029Z,29.05
2018-06-10T08:12:06.518Z,29.14
2018-06-10T08:12:46.993Z,29.18
2018-06-10T08:13:27.579Z,29.11
2018-06-10T08:14:08.299Z,29.19
2018-06-10T08:14:48.524Z,29.28
2018-06-10T08:15:29.096Z,29.33
2018-06-10T08:16:10.034Z,29.33
2018-06-10T08:16:50.546Z,29.3
2018-06-10T08:17:31.381Z,29.36
2018-06-10T08:18:11.952Z,29.39
2018-06-10T08:18:52.498Z,29.31
2018-06-10T08:19:33.635Z,29.36
2018-06-10T08:20:14.745Z,29.34
2018-06-10T08:20:55.786Z,29.27
2018-06-10T08:21:36.438Z,29.14
2018-06-10T08:22:17.171Z,29.18
2018-06-10T08:22:59.682Z,29.12
2018-06-10T08:23:40.378Z,29.16
2018-06-10T08:24:20.831Z,29.06
2018-06-10T08:25:01.359Z,29.06
2018-06-10T08:25:41.842Z,29.14
2018-06-10T08:26:22.684Z,29.12
2018-06-10T08:27:04.141Z,29.12
2018-06-10T08:27:45.718Z,29.06
2018-06-10T08:28:27.478Z,29.04
2018-06-10T08:29:12.111Z,29.09
2018-06-10T08:29:55.185Z,28.95
2018-06-10T08:30:36.909Z,28.98
2018-06-10T08:31:17.956Z,29.08
2018-06-10T08:31:58.993Z,28.95
2018-06-10T08:32:40.144Z,29
2018-06-10T08:33:23.023Z,29.04
2018-06-10T08:34:03.872Z,28.92
2018-06-10T08:34:44.854Z,28.81
2018-06-10T08:35:25.504Z,28.8
2018-06-10T08:36:06.025Z,28.86
2018-06-10T08:36:50.236Z,28.8
2018-06-10T08:37:31.681Z,28.81
2018-06-10T08:38:13.017Z,28.74
2018-06-10T08:38:53.591Z,28.73
2018-06-10T08:39:34.833Z,28.88
2018-06-10T08:40:17.018Z,28.88
2018-06-10T08:41:00.385Z,28.86
2018-06-10T08:41:41.873Z,28.9
2018-06-10T08:42:23.547Z,28.98
2018-06-10T08:43:04.288Z,29.02
2018-06-10T08:43:46.842Z,28.89
2018-06-10T08:44:28.010Z,28.85
2018-06-10T08:45:09.578Z,28.88
2018-06-10T08:45:50.825Z,28.93
2018-06-10T08:46:31.335Z,28.86
2018-06-10T08:47:11.873Z,28.86
2018-06-10T08:47:52.687Z,28.86
2018-06-10T08:48:33.040Z,28.9
2018-06-10T08:49:13.556Z,28.86
2018-06-10T08:49:54.088Z,28.96